createdAt,value
2019-01-20T00:00:33.092Z,4.50
2019-01-20T00:01:33.279Z,4.10
2019-01-20T00:02:33.082Z,4.00
2019-01-20T00:03:33.081Z,4.60
2019-01-20T00:04:33.070Z,4.20
2019-01-20T00:05:33.047Z,4.90
2019-01-20T00:06:33.245Z,4.40
2019-01-20T00:07:33.035Z,4.40
2019-01-20T00:08:33.233Z,4.90
2019-01-20T00:09:33.023Z,4.50
2019-01-20T00:10:33.023Z,5.10
2019-01-20T00:11:33.020Z,4.90
2019-01-20T00:12:32.997Z,4.60
2019-01-20T00:13:33.019Z,4.80
2019-01-20T00:14:32.988Z,4.70
2019-01-20T00:15:33.184Z,4.80
2019-01-20T00:16:33.009Z,4.90
2019-01-20T00:17:32.969Z,4.50
2019-01-20T00:18:32.958Z,4.40
2019-01-20T00:19:32.953Z,4.80
2019-01-20T00:20:33.168Z,5.20
2019-01-20T00:21:32.921Z,5.20
2019-01-20T00:22:32.923Z,4.30
2019-01-20T00:23:32.914Z,4.40
2019-01-20T00:24:32.909Z,4.40
2019-01-20T00:25:32.900Z,4.00
2019-01-20T00:26:32.905Z,4.30
2019-01-20T00:27:33.087Z,3.90
2019-01-20T00:28:32.874Z,4.60
2019-01-20T00:29:33.069Z,4.60
2019-01-20T00:30:33.061Z,5.10
2019-01-20T00:31:32.854Z,4.40
2019-01-20T00:32:33.043Z,4.40
2019-01-20T00:33:32.832Z,4.30
2019-01-20T00:34:32.844Z,4.40
2019-01-20T00:35:33.018Z,4.40
2019-01-20T00:36:32.807Z,4.40
2019-01-20T00:37:33.008Z,4.10
2019-01-20T00:38:32.997Z,5.00
2019-01-20T00:39:32.784Z,5.00
2019-01-20T00:40:32.991Z,4.30
2019-01-20T00:41:32.776Z,5.10
2019-01-20T00:42:32.759Z,4.80
2019-01-20T00:43:32.759Z,4.80
2019-01-20T00:44:32.747Z,4.60
2019-01-20T00:45:32.750Z,4.80
2019-01-20T00:46:32.739Z,4.80
2019-01-20T00:47:32.929Z,4.50
2019-01-20T00:48:32.730Z,4.80
2019-01-20T00:49:32.712Z,5.10
2019-01-20T00:50:32.700Z,4.60
2019-01-20T00:51:32.690Z,4.80
2019-01-20T00:52:32.889Z,4.70
2019-01-20T00:53:32.687Z,5.00
2019-01-20T00:54:32.668Z,5.00
2019-01-20T00:55:32.657Z,5.00
2019-01-20T00:56:32.662Z,4.80
2019-01-20T00:57:32.644Z,5.70
2019-01-20T00:58:32.636Z,5.70
2019-01-20T00:59:32.625Z,7.00
2019-01-20T01:00:32.826Z,6.00
2019-01-20T01:01:32.617Z,6.10
2019-01-20T01:02:32.619Z,6.10
2019-01-20T01:03:32.599Z,6.80
2019-01-20T01:04:32.608Z,6.40
2019-01-20T01:05:32.580Z,6.10
2019-01-20T01:06:32.582Z,6.50
2019-01-20T01:07:32.572Z,5.90
2019-01-20T01:08:32.552Z,5.90
2019-01-20T01:09:32.550Z,6.20
2019-01-20T01:10:32.550Z,6.30
2019-01-20T01:11:32.529Z,6.00
2019-01-20T01:12:32.531Z,5.80
2019-01-20T01:13:32.538Z,5.90
2019-01-20T01:14:32.520Z,5.70
2019-01-20T01:15:32.497Z,5.80
2019-01-20T01:16:32.498Z,5.90
2019-01-20T01:17:32.477Z,5.70
2019-01-20T01:18:32.484Z,5.90
2019-01-20T01:19:32.476Z,5.60
2019-01-20T01:20:32.664Z,5.50
2019-01-20T01:21:32.476Z,7.00
2019-01-20T01:22:32.657Z,5.70
2019-01-20T01:23:32.628Z,5.80
2019-01-20T01:24:32.421Z,5.80
2019-01-20T01:25:32.420Z,5.20
2019-01-20T01:26:32.612Z,5.60
2019-01-20T01:27:32.419Z,5.80
2019-01-20T01:28:32.589Z,5.60
2019-01-20T01:29:32.394Z,5.60
2019-01-20T01:30:32.377Z,4.90
2019-01-20T01:31:32.394Z,5.20
2019-01-20T01:32:32.363Z,5.60
2019-01-20T01:33:32.379Z,5.30
2019-01-20T01:34:32.357Z,6.00
2019-01-20T01:35:32.334Z,6.90
2019-01-20T01:36:32.329Z,5.50
2019-01-20T01:37:32.324Z,6.10
2019-01-20T01:38:32.309Z,5.40
2019-01-20T01:39:32.302Z,5.50
2019-01-20T01:40:32.306Z,5.70
2019-01-20T01:41:38.880Z,5.50
2019-01-20T01:42:32.275Z,5.70
2019-01-20T01:43:32.284Z,5.70
2019-01-20T01:44:32.480Z,6.20
2019-01-20T01:45:32.281Z,5.70
2019-01-20T01:46:32.255Z,5.20
2019-01-20T01:47:32.232Z,6.40
2019-01-20T01:48:32.242Z,5.30
2019-01-20T01:49:32.215Z,5.10
2019-01-20T01:50:32.227Z,5.00
2019-01-20T01:51:32.215Z,5.80
2019-01-20T01:52:32.204Z,5.30
2019-01-20T01:53:32.403Z,5.30
2019-01-20T01:54:32.191Z,5.50
2019-01-20T01:55:32.166Z,5.80
2019-01-20T01:56:32.166Z,5.80
2019-01-20T01:57:32.164Z,5.70
2019-01-20T01:58:32.142Z,5.90
2019-01-20T01:59:32.137Z,6.70
2019-01-20T02:00:32.327Z,5.40
2019-01-20T02:01:32.120Z,5.90
2019-01-20T02:02:32.127Z,5.80
2019-01-20T02:03:32.126Z,5.60
2019-01-20T02:04:32.108Z,5.10
2019-01-20T02:05:32.096Z,6.40
2019-01-20T02:06:32.076Z,6.00
2019-01-20T02:07:32.062Z,5.60
2019-01-20T02:08:32.076Z,5.10
2019-01-20T02:09:32.064Z,5.40
2019-01-20T02:10:32.038Z,6.50
2019-01-20T02:11:32.036Z,5.50
2019-01-20T02:12:32.026Z,6.70
2019-01-20T02:13:32.020Z,5.70
2019-01-20T02:14:32.004Z,5.60
2019-01-20T02:15:32.203Z,6.00
2019-01-20T02:16:32.198Z,5.60
2019-01-20T02:17:31.979Z,5.40
2019-01-20T02:18:31.968Z,5.50
2019-01-20T02:19:31.971Z,7.10
2019-01-20T02:20:32.172Z,6.00
2019-01-20T02:21:31.949Z,6.50
2019-01-20T02:22:31.941Z,5.40
2019-01-20T02:23:31.936Z,5.00
2019-01-20T02:24:31.917Z,5.20
2019-01-20T02:25:31.908Z,6.00
2019-01-20T02:26:32.104Z,7.30
2019-01-20T02:27:31.895Z,5.10
2019-01-20T02:28:32.092Z,6.20
2019-01-20T02:29:32.094Z,4.90
2019-01-20T02:30:31.880Z,5.30
2019-01-20T02:31:31.866Z,5.60
2019-01-20T02:32:31.848Z,4.90
2019-01-20T02:33:31.841Z,5.20
2019-01-20T02:34:31.853Z,5.20
2019-01-20T02:35:32.057Z,4.80
2019-01-20T02:36:31.840Z,4.80
2019-01-20T02:37:31.822Z,5.40
2019-01-20T02:38:31.799Z,4.90
2019-01-20T02:39:31.799Z,5.60
2019-01-20T02:40:31.789Z,5.40
2019-01-20T02:41:31.771Z,5.40
2019-01-20T02:42:32.097Z,6.50
2019-01-20T02:43:31.759Z,5.90
2019-01-20T02:44:31.763Z,5.40
2019-01-20T02:45:31.744Z,5.40
2019-01-20T02:46:31.743Z,5.80
2019-01-20T02:47:31.747Z,5.90
2019-01-20T02:48:31.727Z,5.30
2019-01-20T02:49:31.703Z,4.90
2019-01-20T02:50:31.690Z,4.50
2019-01-20T02:51:31.685Z,4.90
2019-01-20T02:52:31.873Z,9.80
2019-01-20T02:53:31.728Z,5.00
2019-01-20T02:54:31.663Z,5.00
2019-01-20T02:55:31.648Z,5.10
2019-01-20T02:56:31.638Z,6.30
2019-01-20T02:57:31.656Z,4.60
2019-01-20T02:58:31.626Z,4.70
2019-01-20T02:59:31.646Z,4.90
2019-01-20T03:00:31.615Z,5.50
2019-01-20T03:01:31.604Z,4.50
2019-01-20T03:02:31.591Z,5.10
2019-01-20T03:03:31.791Z,4.00
2019-01-20T03:04:31.578Z,5.00
2019-01-20T03:05:31.568Z,4.20
2019-01-20T03:06:31.561Z,5.20
2019-01-20T03:07:31.559Z,5.00
2019-01-20T03:08:31.568Z,4.80
2019-01-20T03:09:31.538Z,5.00
2019-01-20T03:10:31.511Z,4.80
2019-01-20T03:11:31.708Z,4.90
2019-01-20T03:12:31.523Z,7.10
2019-01-20T03:13:31.505Z,4.50
2019-01-20T03:14:31.494Z,5.10
2019-01-20T03:15:31.675Z,4.60
2019-01-20T03:16:31.487Z,4.00
2019-01-20T03:17:31.711Z,5.20
2019-01-20T03:18:31.454Z,4.60
2019-01-20T03:19:31.455Z,5.50
2019-01-20T03:20:31.426Z,5.00
2019-01-20T03:21:31.434Z,5.90
2019-01-20T03:22:31.406Z,4.90
2019-01-20T03:23:31.399Z,4.00
2019-01-20T03:24:31.389Z,5.00
2019-01-20T03:25:31.392Z,5.10
2019-01-20T03:26:31.380Z,5.20
2019-01-20T03:27:31.386Z,4.40
2019-01-20T03:28:31.371Z,5.30
2019-01-20T03:29:31.357Z,6.30
2019-01-20T03:30:31.350Z,4.10
2019-01-20T03:31:31.332Z,5.90
2019-01-20T03:32:31.323Z,5.80
2019-01-20T03:33:31.326Z,4.50
2019-01-20T03:34:31.319Z,6.00
2019-01-20T03:35:31.298Z,4.80
2019-01-20T03:36:31.297Z,6.40
2019-01-20T03:37:31.282Z,5.20
2019-01-20T03:38:31.268Z,6.20
2019-01-20T03:39:31.258Z,5.00
2019-01-20T03:40:31.457Z,4.50
2019-01-20T03:41:31.244Z,6.20
2019-01-20T03:42:31.257Z,4.80
2019-01-20T03:43:31.229Z,5.80
2019-01-20T03:44:31.226Z,5.30
2019-01-20T03:45:31.211Z,4.60
2019-01-20T03:46:31.209Z,6.00
2019-01-20T03:47:31.199Z,6.30
2019-01-20T03:48:31.384Z,5.20
2019-01-20T03:49:31.202Z,4.80
2019-01-20T03:50:31.191Z,4.70
2019-01-20T03:51:31.159Z,5.30
2019-01-20T03:52:31.152Z,5.00
2019-01-20T03:53:31.141Z,5.70
2019-01-20T03:54:31.129Z,4.50
2019-01-20T03:55:31.144Z,5.50
2019-01-20T03:56:31.127Z,5.00
2019-01-20T03:57:31.114Z,4.80
2019-01-20T03:58:31.110Z,4.50
2019-01-20T03:59:31.298Z,4.70
2019-01-20T04:00:31.087Z,5.30
2019-01-20T04:01:31.087Z,5.40
2019-01-20T04:02:31.068Z,5.40
2019-01-20T04:03:31.052Z,4.60
2019-01-20T04:04:31.248Z,5.50
2019-01-20T04:05:31.041Z,4.90
2019-01-20T04:06:31.034Z,4.80
2019-01-20T04:07:31.240Z,5.10
2019-01-20T04:08:31.017Z,5.80
2019-01-20T04:09:31.219Z,4.90
2019-01-20T04:10:31.000Z,4.50
2019-01-20T04:11:30.987Z,5.50
2019-01-20T04:12:30.985Z,5.00
2019-01-20T04:13:30.973Z,5.70
2019-01-20T04:14:30.966Z,4.60
2019-01-20T04:15:30.966Z,5.70
2019-01-20T04:16:30.949Z,4.60
2019-01-20T04:17:30.941Z,4.30
2019-01-20T04:18:30.947Z,4.80
2019-01-20T04:19:31.130Z,5.40
2019-01-20T04:20:30.913Z,4.50
2019-01-20T04:21:31.124Z,4.20
2019-01-20T04:22:30.911Z,4.70
2019-01-20T04:23:30.899Z,4.90
2019-01-20T04:24:30.895Z,6.70
2019-01-20T04:25:30.888Z,5.30
2019-01-20T04:26:30.880Z,6.00
2019-01-20T04:27:30.869Z,4.90
2019-01-20T04:28:30.853Z,4.70
2019-01-20T04:29:31.057Z,4.70
2019-01-20T04:30:31.033Z,5.60
2019-01-20T04:31:30.816Z,4.90
2019-01-20T04:32:31.017Z,4.90
2019-01-20T04:33:30.817Z,4.80
2019-01-20T04:34:30.815Z,5.40
2019-01-20T04:35:30.781Z,5.60
2019-01-20T04:36:30.794Z,4.50
2019-01-20T04:37:30.768Z,7.00
2019-01-20T04:38:30.959Z,4.70
2019-01-20T04:39:30.751Z,5.70
2019-01-20T04:40:30.741Z,4.60
2019-01-20T04:41:30.738Z,5.80
2019-01-20T04:42:30.934Z,4.80
2019-01-20T04:43:30.728Z,5.80
2019-01-20T04:44:30.715Z,6.10
2019-01-20T04:45:30.702Z,4.90
2019-01-20T04:46:30.703Z,4.60
2019-01-20T04:47:30.685Z,6.00
2019-01-20T04:48:30.684Z,5.90
2019-01-20T04:49:30.673Z,6.10
2019-01-20T04:50:30.889Z,6.80
2019-01-20T04:51:30.649Z,7.10
2019-01-20T04:52:30.858Z,5.70
2019-01-20T04:53:30.633Z,5.30
2019-01-20T04:54:30.637Z,6.40
2019-01-20T04:55:30.616Z,5.20
2019-01-20T04:56:30.619Z,5.90
2019-01-20T04:57:30.601Z,5.40
2019-01-20T04:58:30.668Z,6.90
2019-01-20T04:59:30.584Z,6.00
2019-01-20T05:00:30.571Z,5.10
2019-01-20T05:01:30.571Z,5.70
2019-01-20T05:02:30.557Z,5.90
2019-01-20T05:03:30.545Z,5.80
2019-01-20T05:04:30.540Z,5.40
2019-01-20T05:05:30.537Z,5.60
2019-01-20T05:06:30.520Z,5.90
2019-01-20T05:07:30.516Z,6.10
2019-01-20T05:08:30.509Z,5.80
2019-01-20T05:09:30.517Z,6.10
2019-01-20T05:10:30.503Z,6.60
2019-01-20T05:11:30.485Z,5.90
2019-01-20T05:12:37.627Z,6.10
2019-01-20T05:13:30.467Z,5.80
2019-01-20T05:14:30.454Z,6.70
2019-01-20T05:15:30.458Z,7.70
2019-01-20T05:16:30.471Z,5.70
2019-01-20T05:17:30.440Z,6.10
2019-01-20T05:18:30.418Z,6.20
2019-01-20T05:19:30.413Z,6.20
2019-01-20T05:20:30.455Z,5.50
2019-01-20T05:21:30.394Z,5.60
2019-01-20T05:22:30.415Z,7.40
2019-01-20T05:23:30.389Z,6.70
2019-01-20T05:24:30.379Z,5.90
2019-01-20T05:25:30.370Z,5.90
2019-01-20T05:26:30.380Z,6.40
2019-01-20T05:27:30.353Z,6.30
2019-01-20T05:28:30.348Z,5.60
2019-01-20T05:29:30.335Z,6.00
2019-01-20T05:30:30.329Z,10.20
2019-01-20T05:31:30.347Z,6.20
2019-01-20T05:32:30.323Z,5.70
2019-01-20T05:33:30.313Z,6.80
2019-01-20T05:34:30.294Z,5.70
2019-01-20T05:35:30.286Z,6.30
2019-01-20T05:36:30.273Z,7.00
2019-01-20T05:37:30.262Z,6.00
2019-01-20T05:38:30.255Z,5.80
2019-01-20T05:39:30.246Z,6.80
2019-01-20T05:40:30.254Z,6.40
2019-01-20T05:41:30.248Z,8.80
2019-01-20T05:42:30.223Z,5.40
2019-01-20T05:43:30.240Z,6.40
2019-01-20T05:44:30.219Z,7.30
2019-01-20T05:45:30.206Z,7.40
2019-01-20T05:46:30.203Z,5.90
2019-01-20T05:47:30.176Z,6.10
2019-01-20T05:48:30.169Z,7.30
2019-01-20T05:49:30.378Z,6.50
2019-01-20T05:50:30.167Z,7.70
2019-01-20T05:51:30.162Z,7.00
2019-01-20T05:52:30.156Z,6.60
2019-01-20T05:53:30.123Z,6.50
2019-01-20T05:54:30.131Z,7.50
2019-01-20T05:55:30.119Z,7.00
2019-01-20T05:56:30.114Z,6.00
2019-01-20T05:57:30.112Z,8.40
2019-01-20T05:58:30.089Z,6.10
2019-01-20T05:59:30.092Z,8.00
2019-01-20T06:00:30.273Z,7.30
2019-01-20T06:01:30.058Z,7.00
2019-01-20T06:02:30.079Z,6.40
2019-01-20T06:03:30.057Z,6.40
2019-01-20T06:04:30.053Z,8.20
2019-01-20T06:05:30.033Z,7.40
2019-01-20T06:06:30.028Z,6.60
2019-01-20T06:07:30.021Z,7.30
2019-01-20T06:08:30.213Z,7.60
2019-01-20T06:09:29.994Z,6.50
2019-01-20T06:10:29.982Z,6.70
2019-01-20T06:11:29.988Z,6.70
2019-01-20T06:12:29.981Z,7.50
2019-01-20T06:13:29.969Z,7.50
2019-01-20T06:14:29.950Z,6.70
2019-01-20T06:15:29.946Z,6.50
2019-01-20T06:16:30.131Z,6.30
2019-01-20T06:17:29.939Z,7.70
2019-01-20T06:18:30.122Z,6.00
2019-01-20T06:19:29.911Z,6.50
2019-01-20T06:20:29.930Z,7.00
2019-01-20T06:21:29.893Z,7.30
2019-01-20T06:22:29.882Z,6.50
2019-01-20T06:23:30.087Z,7.20
2019-01-20T06:24:29.860Z,6.50
2019-01-20T06:25:29.878Z,7.10
2019-01-20T06:26:30.068Z,7.40
2019-01-20T06:27:30.039Z,9.20
2019-01-20T06:28:29.826Z,7.70
2019-01-20T06:29:30.029Z,7.60
2019-01-20T06:30:29.821Z,6.60
2019-01-20T06:31:30.013Z,8.20
2019-01-20T06:32:29.796Z,6.80
2019-01-20T06:33:29.801Z,6.80
2019-01-20T06:34:29.788Z,8.10
2019-01-20T06:35:29.779Z,7.70
2019-01-20T06:36:29.759Z,7.50
2019-01-20T06:37:29.752Z,7.80
2019-01-20T06:38:29.752Z,7.80
2019-01-20T06:39:29.749Z,7.50
2019-01-20T06:40:29.743Z,8.10
2019-01-20T06:41:29.719Z,7.60
2019-01-20T06:42:29.708Z,9.90
2019-01-20T06:43:29.713Z,7.70
2019-01-20T06:44:29.698Z,8.80
2019-01-20T06:45:29.694Z,7.40
2019-01-20T06:46:29.673Z,8.60
2019-01-20T06:47:29.678Z,8.00
2019-01-20T06:48:29.653Z,8.30
2019-01-20T06:49:29.646Z,7.10
2019-01-20T06:50:29.643Z,6.90
2019-01-20T06:51:29.625Z,8.00
2019-01-20T06:52:29.630Z,8.90
2019-01-20T06:53:29.815Z,7.90
2019-01-20T06:54:29.604Z,8.00
2019-01-20T06:55:29.613Z,7.80
2019-01-20T06:56:29.583Z,7.50
2019-01-20T06:57:29.579Z,7.00
2019-01-20T06:58:29.572Z,7.70
2019-01-20T06:59:29.766Z,7.80
2019-01-20T07:00:29.790Z,7.90
2019-01-20T07:01:29.763Z,7.70
2019-01-20T07:02:29.761Z,8.10
2019-01-20T07:03:29.544Z,8.90
2019-01-20T07:04:29.522Z,7.50
2019-01-20T07:05:29.510Z,7.00
2019-01-20T07:06:29.506Z,10.00
2019-01-20T07:07:29.494Z,8.00
2019-01-20T07:08:29.489Z,9.00
2019-01-20T07:09:29.487Z,8.80
2019-01-20T07:10:29.468Z,7.40
2019-01-20T07:11:29.461Z,8.90
2019-01-20T07:12:29.450Z,9.10
2019-01-20T07:13:29.441Z,10.90
2019-01-20T07:14:29.439Z,7.80
2019-01-20T07:15:29.456Z,9.10
2019-01-20T07:16:29.451Z,9.80
2019-01-20T07:17:29.417Z,9.30
2019-01-20T07:18:29.423Z,11.40
2019-01-20T07:19:29.405Z,9.40
2019-01-20T07:20:29.414Z,8.50
2019-01-20T07:21:29.378Z,9.50
2019-01-20T07:22:29.392Z,10.10
2019-01-20T07:23:29.371Z,9.20
2019-01-20T07:24:29.351Z,7.20
2019-01-20T07:25:29.335Z,9.30
2019-01-20T07:26:29.333Z,7.60
2019-01-20T07:27:29.331Z,7.50
2019-01-20T07:28:29.309Z,8.30
2019-01-20T07:29:29.314Z,10.80
2019-01-20T07:30:29.301Z,8.50
2019-01-20T07:31:29.289Z,14.20
2019-01-20T07:32:29.483Z,10.80
2019-01-20T07:33:29.263Z,9.50
2019-01-20T07:34:29.262Z,11.80
2019-01-20T07:35:29.251Z,10.10
2019-01-20T07:36:29.262Z,9.90
2019-01-20T07:37:29.249Z,10.20
2019-01-20T07:38:29.251Z,10.30
2019-01-20T07:39:29.268Z,10.00
2019-01-20T07:40:29.431Z,8.00
2019-01-20T07:41:29.245Z,10.90
2019-01-20T07:42:29.223Z,12.00
2019-01-20T07:43:29.222Z,10.50
2019-01-20T07:44:29.187Z,11.30
2019-01-20T07:45:29.159Z,10.70
2019-01-20T07:46:29.159Z,8.60
2019-01-20T07:47:29.152Z,9.10
2019-01-20T07:48:29.139Z,9.30
2019-01-20T07:49:29.133Z,10.20
2019-01-20T07:50:29.121Z,8.70
2019-01-20T07:51:29.113Z,8.80
2019-01-20T07:52:29.101Z,8.20
2019-01-20T07:53:29.108Z,8.70
2019-01-20T07:54:29.091Z,9.70
2019-01-20T07:55:29.091Z,9.20
2019-01-20T07:56:29.068Z,9.80
2019-01-20T07:57:29.062Z,9.00
2019-01-20T07:58:29.052Z,10.90
2019-01-20T07:59:29.036Z,9.90
2019-01-20T08:00:29.036Z,8.50
2019-01-20T08:01:29.037Z,10.00
2019-01-20T08:02:29.011Z,10.20
2019-01-20T08:03:29.036Z,10.80
2019-01-20T08:04:29.035Z,8.60
2019-01-20T08:05:29.034Z,9.20
2019-01-20T08:06:29.027Z,9.40
2019-01-20T08:07:28.982Z,8.80
2019-01-20T08:08:28.974Z,8.30
2019-01-20T08:09:28.949Z,9.30
2019-01-20T08:10:28.991Z,9.50
2019-01-20T08:11:28.948Z,9.20
2019-01-20T08:12:28.924Z,11.40
2019-01-20T08:13:28.916Z,10.20
2019-01-20T08:14:28.916Z,12.30
2019-01-20T08:15:28.896Z,10.50
2019-01-20T08:16:28.907Z,12.10
2019-01-20T08:17:28.891Z,10.80
2019-01-20T08:18:29.087Z,11.60
2019-01-20T08:19:28.857Z,13.60
2019-01-20T08:20:28.854Z,11.40
2019-01-20T08:21:28.844Z,10.70
2019-01-20T08:22:28.841Z,11.40
2019-01-20T08:23:28.855Z,12.10
2019-01-20T08:24:28.827Z,12.90
2019-01-20T08:25:28.808Z,17.90
2019-01-20T08:26:28.810Z,13.50
2019-01-20T08:27:28.804Z,11.50
2019-01-20T08:28:28.987Z,13.30
2019-01-20T08:29:28.781Z,13.90
2019-01-20T08:30:28.976Z,12.00
2019-01-20T08:31:28.962Z,12.00
2019-01-20T08:32:28.746Z,13.10
2019-01-20T08:33:28.737Z,11.30
2019-01-20T08:34:28.722Z,15.40
2019-01-20T08:35:28.738Z,16.90
2019-01-20T08:36:28.928Z,15.40
2019-01-20T08:37:28.997Z,12.80
2019-01-20T08:38:28.687Z,14.50
2019-01-20T08:39:28.680Z,12.00
2019-01-20T08:40:28.677Z,13.90
2019-01-20T08:41:28.880Z,12.40
2019-01-20T08:42:28.665Z,15.00
2019-01-20T08:43:31.895Z,14.30
2019-01-20T08:44:28.655Z,14.00
2019-01-20T08:45:28.630Z,11.40
2019-01-20T08:46:28.635Z,11.60
2019-01-20T08:47:28.619Z,13.70
2019-01-20T08:48:28.608Z,10.50
2019-01-20T08:49:28.598Z,11.50
2019-01-20T08:50:28.588Z,11.20
2019-01-20T08:51:28.575Z,10.30
2019-01-20T08:52:28.584Z,10.20
2019-01-20T08:53:28.765Z,11.60
2019-01-20T08:54:28.554Z,12.70
2019-01-20T08:55:28.544Z,10.30
2019-01-20T08:56:28.534Z,10.60
2019-01-20T08:57:28.741Z,11.70
2019-01-20T08:58:28.520Z,10.60
2019-01-20T08:59:28.522Z,11.00
2019-01-20T09:00:28.504Z,11.90
2019-01-20T09:01:28.491Z,11.50
2019-01-20T09:02:28.504Z,12.40
2019-01-20T09:03:28.489Z,10.50
2019-01-20T09:04:28.687Z,9.80
2019-01-20T09:05:28.474Z,11.90
2019-01-20T09:06:28.450Z,11.30
2019-01-20T09:07:28.443Z,13.20
2019-01-20T09:08:28.631Z,10.80
2019-01-20T09:09:28.431Z,11.40
2019-01-20T09:10:28.429Z,13.50
2019-01-20T09:11:28.409Z,11.30
2019-01-20T09:12:28.419Z,11.50
2019-01-20T09:13:28.389Z,12.10
2019-01-20T09:14:28.388Z,11.10
2019-01-20T09:15:28.381Z,11.70
2019-01-20T09:16:28.362Z,11.90
2019-01-20T09:17:28.369Z,11.00
2019-01-20T09:18:28.882Z,13.30
2019-01-20T09:19:28.343Z,11.60
2019-01-20T09:20:28.350Z,11.70
2019-01-20T09:21:28.524Z,12.10
2019-01-20T09:22:28.335Z,13.60
2019-01-20T09:23:28.310Z,14.40
2019-01-20T09:24:28.505Z,14.30
2019-01-20T09:25:28.305Z,14.00
2019-01-20T09:26:28.294Z,12.40
2019-01-20T09:27:28.479Z,14.30
2019-01-20T09:28:28.469Z,12.00
2019-01-20T09:29:28.459Z,13.70
2019-01-20T09:30:28.259Z,14.20
2019-01-20T09:31:28.249Z,14.80
2019-01-20T09:32:28.235Z,13.70
2019-01-20T09:33:28.237Z,12.70
2019-01-20T09:34:28.216Z,13.50
2019-01-20T09:35:28.218Z,13.20
2019-01-20T09:36:28.406Z,13.80
2019-01-20T09:37:28.208Z,13.30
2019-01-20T09:38:28.386Z,14.20
2019-01-20T09:39:28.236Z,13.80
2019-01-20T09:40:28.169Z,13.40
2019-01-20T09:41:28.169Z,14.90
2019-01-20T09:42:28.153Z,13.30
2019-01-20T09:43:28.150Z,13.20
2019-01-20T09:44:28.164Z,13.40
2019-01-20T09:45:28.132Z,13.80
2019-01-20T09:46:28.122Z,12.80
2019-01-20T09:47:28.313Z,12.10
2019-01-20T09:48:28.103Z,12.60
2019-01-20T09:49:28.104Z,12.30
2019-01-20T09:50:28.293Z,12.90
2019-01-20T09:51:28.084Z,13.40
2019-01-20T09:52:28.099Z,11.90
2019-01-20T09:53:28.070Z,12.20
2019-01-20T09:54:28.068Z,11.60
2019-01-20T09:55:28.064Z,12.70
2019-01-20T09:56:28.046Z,12.80
2019-01-20T09:57:28.050Z,12.80
2019-01-20T09:58:28.022Z,12.70
2019-01-20T09:59:28.018Z,12.40
2019-01-20T10:00:28.242Z,12.80
2019-01-20T10:01:28.016Z,12.10
2019-01-20T10:02:27.993Z,11.80
2019-01-20T10:03:28.015Z,10.70
2019-01-20T10:04:27.984Z,12.10
2019-01-20T10:05:27.981Z,12.20
2019-01-20T10:06:27.975Z,13.20
2019-01-20T10:07:27.962Z,12.70
2019-01-20T10:08:27.959Z,12.30
2019-01-20T10:09:28.010Z,13.60
2019-01-20T10:10:28.309Z,12.40
2019-01-20T10:11:27.928Z,12.00
2019-01-20T10:12:27.917Z,12.00
2019-01-20T10:13:27.920Z,11.70
2019-01-20T10:14:27.904Z,12.10
2019-01-20T10:15:27.905Z,12.20
2019-01-20T10:16:27.917Z,11.30
2019-01-20T10:17:27.883Z,14.40
2019-01-20T10:18:28.087Z,13.10
2019-01-20T10:19:27.884Z,13.20
2019-01-20T10:20:28.073Z,10.40
2019-01-20T10:21:27.843Z,11.50
2019-01-20T10:22:28.345Z,13.00
2019-01-20T10:23:27.831Z,10.70
2019-01-20T10:24:28.041Z,10.20
2019-01-20T10:25:27.828Z,10.80
2019-01-20T10:26:28.022Z,11.60
2019-01-20T10:27:27.795Z,10.40
2019-01-20T10:28:27.799Z,10.40
2019-01-20T10:29:27.793Z,10.80
2019-01-20T10:30:27.775Z,11.00
2019-01-20T10:31:27.791Z,10.30
2019-01-20T10:32:27.779Z,10.00
2019-01-20T10:33:27.760Z,10.20
2019-01-20T10:34:27.746Z,10.30
2019-01-20T10:35:27.761Z,10.50
2019-01-20T10:36:27.735Z,10.00
2019-01-20T10:37:27.738Z,11.90
2019-01-20T10:38:27.746Z,11.40
2019-01-20T10:39:27.706Z,10.60
2019-01-20T10:40:27.708Z,10.90
2019-01-20T10:41:27.725Z,10.70
2019-01-20T10:42:27.696Z,10.60
2019-01-20T10:43:27.694Z,10.50
2019-01-20T10:44:27.674Z,10.20
2019-01-20T10:45:27.662Z,10.50
2019-01-20T10:46:27.651Z,10.60
2019-01-20T10:47:27.658Z,10.70
2019-01-20T10:48:27.649Z,10.20
2019-01-20T10:49:27.649Z,10.40
2019-01-20T10:50:27.636Z,11.50
2019-01-20T10:51:27.610Z,11.50
2019-01-20T10:52:27.605Z,9.90
2019-01-20T10:53:27.596Z,10.50
2019-01-20T10:54:27.599Z,10.70
2019-01-20T10:55:27.589Z,10.70
2019-01-20T10:56:27.608Z,11.20
2019-01-20T10:57:27.585Z,10.80
2019-01-20T10:58:27.565Z,10.70
2019-01-20T10:59:27.576Z,10.80
2019-01-20T11:00:27.545Z,10.50
2019-01-20T11:01:27.540Z,12.30
2019-01-20T11:02:27.733Z,10.40
2019-01-20T11:03:27.726Z,11.30
2019-01-20T11:04:27.518Z,10.40
2019-01-20T11:05:30.537Z,12.70
2019-01-20T11:06:27.500Z,10.60
2019-01-20T11:07:27.695Z,10.70
2019-01-20T11:08:27.496Z,11.30
2019-01-20T11:09:27.491Z,11.30
2019-01-20T11:10:27.472Z,10.60
2019-01-20T11:11:27.465Z,12.40
2019-01-20T11:12:27.460Z,10.10
2019-01-20T11:13:27.465Z,10.70
2019-01-20T11:14:27.451Z,11.20
2019-01-20T11:15:27.445Z,11.60
2019-01-20T11:16:27.427Z,10.40
2019-01-20T11:17:27.427Z,11.90
2019-01-20T11:18:27.616Z,10.30
2019-01-20T11:19:27.617Z,11.00
2019-01-20T11:20:27.408Z,10.90
2019-01-20T11:21:27.394Z,11.00
2019-01-20T11:22:27.395Z,10.80
2019-01-20T11:23:27.423Z,10.50
2019-01-20T11:24:27.384Z,10.30
2019-01-20T11:25:27.367Z,13.80
2019-01-20T11:26:27.363Z,11.30
2019-01-20T11:27:27.349Z,10.60
2019-01-20T11:28:27.339Z,11.50
2019-01-20T11:29:27.336Z,12.10
2019-01-20T11:30:27.543Z,11.30
2019-01-20T11:31:27.319Z,11.00
2019-01-20T11:32:27.515Z,10.80
2019-01-20T11:33:27.314Z,10.50
2019-01-20T11:34:27.312Z,11.30
2019-01-20T11:35:27.286Z,11.50
2019-01-20T11:36:27.309Z,11.30
2019-01-20T11:37:27.271Z,12.40
2019-01-20T11:38:27.263Z,11.40
2019-01-20T11:39:27.264Z,12.40
2019-01-20T11:40:27.256Z,11.80
2019-01-20T11:41:28.460Z,11.10
2019-01-20T11:42:27.243Z,11.20
2019-01-20T11:43:27.238Z,11.30
2019-01-20T11:44:27.223Z,11.90
2019-01-20T11:45:27.221Z,12.10
2019-01-20T11:46:27.213Z,11.60
2019-01-20T11:47:27.202Z,12.00
2019-01-20T11:48:27.210Z,11.90
2019-01-20T11:49:27.185Z,11.60
2019-01-20T11:50:27.179Z,12.20
2019-01-20T11:51:27.196Z,11.30
2019-01-20T11:52:27.172Z,11.40
2019-01-20T11:53:27.227Z,11.60
2019-01-20T11:54:27.368Z,11.30
2019-01-20T11:55:27.351Z,12.40
2019-01-20T11:56:27.137Z,12.10
2019-01-20T11:57:27.134Z,12.80
2019-01-20T11:58:27.126Z,12.60
2019-01-20T11:59:27.131Z,11.70
2019-01-20T12:00:27.321Z,12.00
2019-01-20T12:01:27.112Z,12.10
2019-01-20T12:02:27.097Z,12.40
2019-01-20T12:03:27.104Z,12.10
2019-01-20T12:04:27.097Z,13.50
2019-01-20T12:05:27.092Z,13.40
2019-01-20T12:06:27.294Z,12.90
2019-01-20T12:07:27.061Z,12.60
2019-01-20T12:08:30.775Z,13.50
2019-01-20T12:09:27.263Z,12.90
2019-01-20T12:10:27.048Z,12.90
2019-01-20T12:11:27.032Z,12.20
2019-01-20T12:12:27.038Z,13.10
2019-01-20T12:13:27.020Z,12.70
2019-01-20T12:14:27.027Z,12.40
2019-01-20T12:15:27.019Z,12.90
2019-01-20T12:16:27.206Z,12.40
2019-01-20T12:17:27.004Z,13.60
2019-01-20T12:18:27.186Z,13.10
2019-01-20T12:19:26.993Z,13.50
2019-01-20T12:20:26.997Z,12.60
2019-01-20T12:21:26.985Z,14.10
2019-01-20T12:22:26.959Z,13.20
2019-01-20T12:23:26.951Z,13.10
2019-01-20T12:24:27.142Z,13.40
2019-01-20T12:25:26.933Z,12.90
2019-01-20T12:26:26.944Z,13.50
2019-01-20T12:27:27.140Z,12.60
2019-01-20T12:28:27.129Z,13.20
2019-01-20T12:29:26.908Z,12.90
2019-01-20T12:30:27.098Z,13.00
2019-01-20T12:31:26.893Z,12.40
2019-01-20T12:32:26.895Z,13.70
2019-01-20T12:33:26.887Z,13.00
2019-01-20T12:34:26.870Z,13.00
2019-01-20T12:35:27.069Z,13.50
2019-01-20T12:36:26.861Z,13.80
2019-01-20T12:37:26.864Z,13.20
2019-01-20T12:38:26.847Z,13.20
2019-01-20T12:39:27.040Z,13.00
2019-01-20T12:40:26.828Z,13.00
2019-01-20T12:41:26.844Z,12.90
2019-01-20T12:42:26.828Z,13.00
2019-01-20T12:43:26.816Z,12.90
2019-01-20T12:44:31.343Z,13.00
2019-01-20T12:45:26.815Z,13.20
2019-01-20T12:46:26.794Z,13.50
2019-01-20T12:47:26.804Z,12.90
2019-01-20T12:48:26.775Z,13.10
2019-01-20T12:49:26.779Z,12.80
2019-01-20T12:50:26.761Z,14.00
2019-01-20T12:51:28.602Z,13.50
2019-01-20T12:52:26.768Z,13.50
2019-01-20T12:53:26.777Z,13.40
2019-01-20T12:54:26.943Z,13.70
2019-01-20T12:55:26.932Z,12.90
2019-01-20T12:56:26.924Z,13.50
2019-01-20T12:57:26.717Z,13.90
2019-01-20T12:58:26.726Z,13.20
2019-01-20T12:59:26.708Z,13.50
2019-01-20T13:00:26.698Z,12.50
2019-01-20T13:01:26.712Z,12.90
2019-01-20T13:02:26.717Z,13.60
2019-01-20T13:03:26.668Z,13.40
2019-01-20T13:04:26.869Z,13.10
2019-01-20T13:05:26.666Z,13.00
2019-01-20T13:06:26.661Z,13.10
2019-01-20T13:07:26.646Z,13.00